sensor_id;sensor_type;location;lat;lon;timestamp;temperature;humidity
44461;DHT22;30162;53.642;10.640;2022-09-01T00:01:22;15.70;90.20
44461;DHT22;30162;53.642;10.640;2022-09-01T00:03:51;15.70;90.10
44461;DHT22;30162;53.642;10.640;2022-09-01T00:06:19;15.50;90.50
44461;DHT22;30162;53.642;10.640;2022-09-01T00:08:55;15.50;90.70
44461;DHT22;30162;53.642;10.640;2022-09-01T00:11:23;15.60;90.60
44461;DHT22;30162;53.642;10.640;2022-09-01T00:13:51;15.70;90.30
44461;DHT22;30162;53.642;10.640;2022-09-01T00:16:19;15.90;90.00
44461;DHT22;30162;53.642;10.640;2022-09-01T00:18:49;16.00;90.00
44461;DHT22;30162;53.642;10.640;2022-09-01T00:21:18;16.10;89.30
44461;DHT22;30162;53.642;10.640;2022-09-01T00:23:44;16.00;89.00
44461;DHT22;30162;53.642;10.640;2022-09-01T00:26:09;15.80;89.20
44461;DHT22;30162;53.642;10.640;2022-09-01T00:28:36;15.70;90.30
44461;DHT22;30162;53.642;10.640;2022-09-01T00:31:03;15.60;90.40
44461;DHT22;30162;53.642;10.640;2022-09-01T00:33:29;15.60;90.80
44461;DHT22;30162;53.642;10.640;2022-09-01T00:35:55;15.50;90.50
44461;DHT22;30162;53.642;10.640;2022-09-01T00:38:20;15.50;90.70
44461;DHT22;30162;53.642;10.640;2022-09-01T00:40:46;15.50;91.00
44461;DHT22;30162;53.642;10.640;2022-09-01T00:43:17;15.50;90.90
44461;DHT22;30162;53.642;10.640;2022-09-01T00:45:43;15.50;91.00
44461;DHT22;30162;53.642;10.640;2022-09-01T00:48:08;15.70;90.80
44461;DHT22;30162;53.642;10.640;2022-09-01T00:50:35;15.60;90.50
44461;DHT22;30162;53.642;10.640;2022-09-01T00:53:03;15.50;90.40
44461;DHT22;30162;53.642;10.640;2022-09-01T00:55:32;15.50;90.60
44461;DHT22;30162;53.642;10.640;2022-09-01T00:58:00;15.50;90.80
44461;DHT22;30162;53.642;10.640;2022-09-01T01:00:30;15.30;91.00
44461;DHT22;30162;53.642;10.640;2022-09-01T01:02:56;15.30;91.10
44461;DHT22;30162;53.642;10.640;2022-09-01T01:05:25;15.20;91.30
44461;DHT22;30162;53.642;10.640;2022-09-01T01:07:55;15.20;91.50
44461;DHT22;30162;53.642;10.640;2022-09-01T01:10:22;15.20;91.40
44461;DHT22;30162;53.642;10.640;2022-09-01T01:12:50;15.30;91.60
44461;DHT22;30162;53.642;10.640;2022-09-01T01:15:17;15.40;91.30
44461;DHT22;30162;53.642;10.640;2022-09-01T01:17:43;15.40;91.50
44461;DHT22;30162;53.642;10.640;2022-09-01T01:20:10;15.50;91.70
44461;DHT22;30162;53.642;10.640;2022-09-01T01:25:58;15.60;91.40
44461;DHT22;30162;53.642;10.640;2022-09-01T01:28:27;15.70;91.60
44461;DHT22;30162;53.642;10.640;2022-09-01T01:31:01;15.80;91.40
44461;DHT22;30162;53.642;10.640;2022-09-01T01:33:51;15.90;91.30
44461;DHT22;30162;53.642;10.640;2022-09-01T01:36:27;15.80;91.30
44461;DHT22;30162;53.642;10.640;2022-09-01T01:38:58;16.00;91.40
44461;DHT22;30162;53.642;10.640;2022-09-01T01:41:26;16.10;91.10
44461;DHT22;30162;53.642;10.640;2022-09-01T01:43:55;16.10;91.10
44461;DHT22;30162;53.642;10.640;2022-09-01T01:46:22;16.20;91.10
44461;DHT22;30162;53.642;10.640;2022-09-01T01:48:51;16.20;90.80
44461;DHT22;30162;53.642;10.640;2022-09-01T01:51:19;16.10;90.70
44461;DHT22;30162;53.642;10.640;2022-09-01T01:53:46;15.90;91.20
44461;DHT22;30162;53.642;10.640;2022-09-01T01:56:12;16.00;91.20
44461;DHT22;30162;53.642;10.640;2022-09-01T01:58:38;15.90;91.30
44461;DHT22;30162;53.642;10.640;2022-09-01T02:01:05;15.90;91.20
44461;DHT22;30162;53.642;10.640;2022-09-01T02:03:32;16.00;91.10
44461;DHT22;30162;53.642;10.640;2022-09-01T02:06:07;15.80;91.20
44461;DHT22;30162;53.642;10.640;2022-09-01T02:08:34;15.80;91.20
44461;DHT22;30162;53.642;10.640;2022-09-01T02:11:02;15.80;91.20
44461;DHT22;30162;53.642;10.640;2022-09-01T02:13:28;15.80;91.10
44461;DHT22;30162;53.642;10.640;2022-09-01T02:16:01;15.70;90.90
44461;DHT22;30162;53.642;10.640;2022-09-01T02:18:31;15.50;91.30
44461;DHT22;30162;53.642;10.640;2022-09-01T02:21:00;15.50;91.50
44461;DHT22;30162;53.642;10.640;2022-09-01T02:23:26;15.50;91.50
44461;DHT22;30162;53.642;10.640;2022-09-01T02:25:54;15.40;91.40
44461;DHT22;30162;53.642;10.640;2022-09-01T02:28:22;15.30;91.80
44461;DHT22;30162;53.642;10.640;2022-09-01T02:30:50;15.20;91.90
44461;DHT22;30162;53.642;10.640;2022-09-01T02:33:20;15.30;92.10
44461;DHT22;30162;53.642;10.640;2022-09-01T02:35:57;15.20;92.20
44461;DHT22;30162;53.642;10.640;2022-09-01T02:38:24;15.40;92.40
44461;DHT22;30162;53.642;10.640;2022-09-01T02:40:57;15.40;92.20
44461;DHT22;30162;53.642;10.640;2022-09-01T02:43:24;15.60;92.00
44461;DHT22;30162;53.642;10.640;2022-09-01T02:45:54;15.60;91.90
44461;DHT22;30162;53.642;10.640;2022-09-01T02:48:33;15.60;92.30
44461;DHT22;30162;53.642;10.640;2022-09-01T02:51:03;15.80;92.20
44461;DHT22;30162;53.642;10.640;2022-09-01T02:53:31;15.90;92.00
44461;DHT22;30162;53.642;10.640;2022-09-01T02:56:03;15.90;91.90
44461;DHT22;30162;53.642;10.640;2022-09-01T02:58:33;15.80;91.70
44461;DHT22;30162;53.642;10.640;2022-09-01T03:00:59;15.70;92.00
44461;DHT22;30162;53.642;10.640;2022-09-01T03:03:25;15.60;92.00
44461;DHT22;30162;53.642;10.640;2022-09-01T03:05:51;15.60;91.90
44461;DHT22;30162;53.642;10.640;2022-09-01T03:08:22;15.60;92.20
44461;DHT22;30162;53.642;10.640;2022-09-01T03:10:48;15.80;92.00
44461;DHT22;30162;53.642;10.640;2022-09-01T03:13:20;15.80;91.70
44461;DHT22;30162;53.642;10.640;2022-09-01T03:15:46;15.70;91.80
44461;DHT22;30162;53.642;10.640;2022-09-01T03:18:13;15.70;91.80
44461;DHT22;30162;53.642;10.640;2022-09-01T03:20:42;15.70;92.20
44461;DHT22;30162;53.642;10.640;2022-09-01T03:23:13;15.60;92.20
44461;DHT22;30162;53.642;10.640;2022-09-01T03:25:40;15.60;92.30
44461;DHT22;30162;53.642;10.640;2022-09-01T03:28:06;15.60;92.40
44461;DHT22;30162;53.642;10.640;2022-09-01T03:30:34;15.70;92.20
44461;DHT22;30162;53.642;10.640;2022-09-01T03:33:01;15.80;91.90
44461;DHT22;30162;53.642;10.640;2022-09-01T03:35:28;15.80;92.20
44461;DHT22;30162;53.642;10.640;2022-09-01T03:37:54;15.80;92.10
44461;DHT22;30162;53.642;10.640;2022-09-01T03:40:27;15.90;91.50
44461;DHT22;30162;53.642;10.640;2022-09-01T03:42:54;15.80;91.90
44461;DHT22;30162;53.642;10.640;2022-09-01T03:45:20;15.70;91.50
44461;DHT22;30162;53.642;10.640;2022-09-01T03:47:46;15.50;91.80
44461;DHT22;30162;53.642;10.640;2022-09-01T03:50:18;15.40;91.80
44461;DHT22;30162;53.642;10.640;2022-09-01T03:52:56;15.30;91.90
44461;DHT22;30162;53.642;10.640;2022-09-01T03:55:26;15.40;92.00
44461;DHT22;30162;53.642;10.640;2022-09-01T03:57:54;15.50;91.60
44461;DHT22;30162;53.642;10.640;2022-09-01T04:00:22;15.40;91.30
44461;DHT22;30162;53.642;10.640;2022-09-01T04:02:49;15.20;91.70
44461;DHT22;30162;53.642;10.640;2022-09-01T04:05:19;15.20;91.90
44461;DHT22;30162;53.642;10.640;2022-09-01T04:07:47;15.20;92.00
44461;DHT22;30162;53.642;10.640;2022-09-01T04:10:14;15.20;92.10
44461;DHT22;30162;53.642;10.640;2022-09-01T04:12:40;15.10;91.90
44461;DHT22;30162;53.642;10.640;2022-09-01T04:15:06;15.00;92.10
44461;DHT22;30162;53.642;10.640;2022-09-01T04:17:32;15.00;92.20
44461;DHT22;30162;53.642;10.640;2022-09-01T04:20:17;14.90;92.50
44461;DHT22;30162;53.642;10.640;2022-09-01T04:22:45;14.90;93.00
44461;DHT22;30162;53.642;10.640;2022-09-01T04:25:12;15.00;92.80
44461;DHT22;30162;53.642;10.640;2022-09-01T04:27:38;15.00;92.90
44461;DHT22;30162;53.642;10.640;2022-09-01T04:30:08;15.10;92.90
44461;DHT22;30162;53.642;10.640;2022-09-01T04:32:35;15.10;92.50
44461;DHT22;30162;53.642;10.640;2022-09-01T04:35:03;15.10;92.60
44461;DHT22;30162;53.642;10.640;2022-09-01T04:37:29;15.10;92.80
44461;DHT22;30162;53.642;10.640;2022-09-01T04:39:55;15.10;92.50
44461;DHT22;30162;53.642;10.640;2022-09-01T04:42:22;15.20;92.60
44461;DHT22;30162;53.642;10.640;2022-09-01T04:44:49;15.20;92.30
44461;DHT22;30162;53.642;10.640;2022-09-01T04:47:15;15.10;92.50
44461;DHT22;30162;53.642;10.640;2022-09-01T04:49:46;15.10;92.50
44461;DHT22;30162;53.642;10.640;2022-09-01T04:52:12;15.10;92.60
44461;DHT22;30162;53.642;10.640;2022-09-01T04:54:38;15.10;92.60
44461;DHT22;30162;53.642;10.640;2022-09-01T04:57:05;15.20;92.80
44461;DHT22;30162;53.642;10.640;2022-09-01T04:59:32;15.30;92.60
44461;DHT22;30162;53.642;10.640;2022-09-01T05:01:58;15.50;92.20
44461;DHT22;30162;53.642;10.640;2022-09-01T05:04:27;15.50;92.40
44461;DHT22;30162;53.642;10.640;2022-09-01T05:06:55;15.70;92.10
44461;DHT22;30162;53.642;10.640;2022-09-01T05:09:30;15.70;92.10
44461;DHT22;30162;53.642;10.640;2022-09-01T05:11:57;15.70;92.00
44461;DHT22;30162;53.642;10.640;2022-09-01T05:14:26;15.80;92.10
44461;DHT22;30162;53.642;10.640;2022-09-01T05:16:56;15.80;92.30
44461;DHT22;30162;53.642;10.640;2022-09-01T05:19:25;16.00;92.30
44461;DHT22;30162;53.642;10.640;2022-09-01T05:21:53;16.10;92.10
44461;DHT22;30162;53.642;10.640;2022-09-01T05:24:22;16.40;91.80
44461;DHT22;30162;53.642;10.640;2022-09-01T05:26:54;16.50;91.80
44461;DHT22;30162;53.642;10.640;2022-09-01T05:29:21;16.70;91.40
44461;DHT22;30162;53.642;10.640;2022-09-01T05:31:47;16.90;91.20
44461;DHT22;30162;53.642;10.640;2022-09-01T05:34:14;16.90;91.20
44461;DHT22;30162;53.642;10.640;2022-09-01T05:36:45;16.90;91.10
44461;DHT22;30162;53.642;10.640;2022-09-01T05:39:14;17.00;91.30
44461;DHT22;30162;53.642;10.640;2022-09-01T05:41:40;16.90;91.30
44461;DHT22;30162;53.642;10.640;2022-09-01T05:44:07;17.00;91.00
44461;DHT22;30162;53.642;10.640;2022-09-01T05:46:35;17.10;91.40
44461;DHT22;30162;53.642;10.640;2022-09-01T05:49:01;17.20;91.00
44461;DHT22;30162;53.642;10.640;2022-09-01T05:51:29;17.20;90.80
44461;DHT22;30162;53.642;10.640;2022-09-01T05:54:01;17.10;91.20
44461;DHT22;30162;53.642;10.640;2022-09-01T05:56:28;17.30;91.20
44461;DHT22;30162;53.642;10.640;2022-09-01T05:58:54;17.40;90.90
44461;DHT22;30162;53.642;10.640;2022-09-01T06:01:26;17.40;91.10
44461;DHT22;30162;53.642;10.640;2022-09-01T06:03:54;17.60;90.80
44461;DHT22;30162;53.642;10.640;2022-09-01T06:06:24;17.70;90.80
44461;DHT22;30162;53.642;10.640;2022-09-01T06:08:51;17.80;90.80
44461;DHT22;30162;53.642;10.640;2022-09-01T06:11:17;17.90;90.60
44461;DHT22;30162;53.642;10.640;2022-09-01T06:13:44;18.20;90.40
44461;DHT22;30162;53.642;10.640;2022-09-01T06:16:12;18.10;90.30
44461;DHT22;30162;53.642;10.640;2022-09-01T06:18:39;18.20;90.20
44461;DHT22;30162;53.642;10.640;2022-09-01T06:21:08;18.40;89.80
44461;DHT22;30162;53.642;10.640;2022-09-01T06:23:42;18.80;89.20
44461;DHT22;30162;53.642;10.640;2022-09-01T06:26:16;19.30;87.90
44461;DHT22;30162;53.642;10.640;2022-09-01T06:28:43;19.50;87.40
44461;DHT22;30162;53.642;10.640;2022-09-01T06:31:09;19.80;87.00
44461;DHT22;30162;53.642;10.640;2022-09-01T06:33:36;20.10;86.50
44461;DHT22;30162;53.642;10.640;2022-09-01T06:36:03;20.20;84.70
44461;DHT22;30162;53.642;10.640;2022-09-01T06:38:30;20.50;83.90
44461;DHT22;30162;53.642;10.640;2022-09-01T06:41:00;20.90;83.50
44461;DHT22;30162;53.642;10.640;2022-09-01T06:43:26;21.40;82.50
44461;DHT22;30162;53.642;10.640;2022-09-01T06:45:55;21.70;81.50
44461;DHT22;30162;53.642;10.640;2022-09-01T06:48:20;22.00;80.70
44461;DHT22;30162;53.642;10.640;2022-09-01T06:50:48;22.30;80.30
44461;DHT22;30162;53.642;10.640;2022-09-01T06:53:14;22.70;79.40
44461;DHT22;30162;53.642;10.640;2022-09-01T06:55:43;22.90;78.20
44461;DHT22;30162;53.642;10.640;2022-09-01T06:58:12;23.10;77.90
44461;DHT22;30162;53.642;10.640;2022-09-01T07:00:40;23.20;77.50
44461;DHT22;30162;53.642;10.640;2022-09-01T07:03:08;22.90;78.30
44461;DHT22;30162;53.642;10.640;2022-09-01T07:05:38;22.90;78.80
44461;DHT22;30162;53.642;10.640;2022-09-01T07:08:05;23.30;77.40
44461;DHT22;30162;53.642;10.640;2022-09-01T07:10:39;23.70;76.40
44461;DHT22;30162;53.642;10.640;2022-09-01T07:13:06;24.10;74.10
44461;DHT22;30162;53.642;10.640;2022-09-01T07:15:38;24.50;75.10
44461;DHT22;30162;53.642;10.640;2022-09-01T07:18:04;24.80;72.50
44461;DHT22;30162;53.642;10.640;2022-09-01T07:20:30;25.00;71.60
44461;DHT22;30162;53.642;10.640;2022-09-01T07:23:04;25.00;72.00
44461;DHT22;30162;53.642;10.640;2022-09-01T07:25:30;25.10;71.40
44461;DHT22;30162;53.642;10.640;2022-09-01T07:28:04;25.00;70.50
44461;DHT22;30162;53.642;10.640;2022-09-01T07:30:30;25.20;69.20
44461;DHT22;30162;53.642;10.640;2022-09-01T07:32:56;25.30;68.20
44461;DHT22;30162;53.642;10.640;2022-09-01T07:35:22;25.30;66.80
44461;DHT22;30162;53.642;10.640;2022-09-01T07:37:48;25.20;65.90
44461;DHT22;30162;53.642;10.640;2022-09-01T07:40:17;25.50;65.20
44461;DHT22;30162;53.642;10.640;2022-09-01T07:42:45;25.40;65.70
44461;DHT22;30162;53.642;10.640;2022-09-01T07:45:13;25.50;65.60
44461;DHT22;30162;53.642;10.640;2022-09-01T07:47:39;25.80;64.70
44461;DHT22;30162;53.642;10.640;2022-09-01T07:50:07;25.60;65.00
44461;DHT22;30162;53.642;10.640;2022-09-01T07:52:38;24.80;65.60
44461;DHT22;30162;53.642;10.640;2022-09-01T07:55:15;25.30;65.30
44461;DHT22;30162;53.642;10.640;2022-09-01T07:57:42;25.10;65.30
44461;DHT22;30162;53.642;10.640;2022-09-01T08:00:11;25.30;64.30
44461;DHT22;30162;53.642;10.640;2022-09-01T08:02:37;24.90;65.50
44461;DHT22;30162;53.642;10.640;2022-09-01T08:05:05;25.10;62.90
44461;DHT22;30162;53.642;10.640;2022-09-01T08:07:34;25.10;64.60
44461;DHT22;30162;53.642;10.640;2022-09-01T08:10:01;25.10;63.90
44461;DHT22;30162;53.642;10.640;2022-09-01T08:12:26;25.10;61.70
44461;DHT22;30162;53.642;10.640;2022-09-01T08:14:52;25.30;63.20
44461;DHT22;30162;53.642;10.640;2022-09-01T08:17:18;25.50;61.40
44461;DHT22;30162;53.642;10.640;2022-09-01T08:19:44;25.80;61.70
44461;DHT22;30162;53.642;10.640;2022-09-01T08:22:12;25.60;60.30
44461;DHT22;30162;53.642;10.640;2022-09-01T08:24:37;25.50;60.00
44461;DHT22;30162;53.642;10.640;2022-09-01T08:27:03;25.70;59.80
44461;DHT22;30162;53.642;10.640;2022-09-01T08:29:29;25.80;58.00
44461;DHT22;30162;53.642;10.640;2022-09-01T08:31:54;25.70;59.80
44461;DHT22;30162;53.642;10.640;2022-09-01T08:34:20;26.00;58.90
44461;DHT22;30162;53.642;10.640;2022-09-01T08:36:45;26.50;59.30
44461;DHT22;30162;53.642;10.640;2022-09-01T08:39:11;26.50;59.00
44461;DHT22;30162;53.642;10.640;2022-09-01T08:41:48;26.60;58.90
44461;DHT22;30162;53.642;10.640;2022-09-01T08:47:24;26.30;58.00
44461;DHT22;30162;53.642;10.640;2022-09-01T08:49:50;26.80;58.60
44461;DHT22;30162;53.642;10.640;2022-09-01T08:52:34;27.20;58.20
44461;DHT22;30162;53.642;10.640;2022-09-01T08:55:06;27.40;55.80
44461;DHT22;30162;53.642;10.640;2022-09-01T08:57:38;27.40;56.10
44461;DHT22;30162;53.642;10.640;2022-09-01T09:00:11;27.30;56.40
44461;DHT22;30162;53.642;10.640;2022-09-01T09:02:54;27.70;55.10
44461;DHT22;30162;53.642;10.640;2022-09-01T09:06:01;27.40;54.60
44461;DHT22;30162;53.642;10.640;2022-09-01T09:08:49;27.20;54.80
44461;DHT22;30162;53.642;10.640;2022-09-01T09:16:54;27.50;56.10
44461;DHT22;30162;53.642;10.640;2022-09-01T09:21:55;28.20;55.00
44461;DHT22;30162;53.642;10.640;2022-09-01T09:27:52;28.40;53.90
44461;DHT22;30162;53.642;10.640;2022-09-01T09:30:24;28.80;53.30
44461;DHT22;30162;53.642;10.640;2022-09-01T09:33:04;28.70;53.30
44461;DHT22;30162;53.642;10.640;2022-09-01T09:35:36;29.00;53.70
44461;DHT22;30162;53.642;10.640;2022-09-01T09:38:16;28.80;51.70
44461;DHT22;30162;53.642;10.640;2022-09-01T09:41:03;29.00;52.90
44461;DHT22;30162;53.642;10.640;2022-09-01T09:43:37;28.90;52.70
44461;DHT22;30162;53.642;10.640;2022-09-01T09:46:41;28.80;52.40
44461;DHT22;30162;53.642;10.640;2022-09-01T09:51:33;28.60;51.40
44461;DHT22;30162;53.642;10.640;2022-09-01T09:56:45;29.20;50.20
44461;DHT22;30162;53.642;10.640;2022-09-01T09:59:30;29.60;49.90
44461;DHT22;30162;53.642;10.640;2022-09-01T10:01:58;30.00;49.50
44461;DHT22;30162;53.642;10.640;2022-09-01T10:04:34;30.10;50.00
44461;DHT22;30162;53.642;10.640;2022-09-01T10:07:01;30.20;48.60
44461;DHT22;30162;53.642;10.640;2022-09-01T10:11:54;30.00;48.70
44461;DHT22;30162;53.642;10.640;2022-09-01T10:14:34;30.00;49.30
44461;DHT22;30162;53.642;10.640;2022-09-01T10:17:05;30.10;49.80
44461;DHT22;30162;53.642;10.640;2022-09-01T10:19:33;30.50;51.50
44461;DHT22;30162;53.642;10.640;2022-09-01T10:21:59;30.60;51.50
44461;DHT22;30162;53.642;10.640;2022-09-01T10:24:33;30.10;51.60
44461;DHT22;30162;53.642;10.640;2022-09-01T10:27:06;29.30;52.30
44461;DHT22;30162;53.642;10.640;2022-09-01T10:30:11;28.30;53.60
44461;DHT22;30162;53.642;10.640;2022-09-01T10:32:53;27.90;55.40
44461;DHT22;30162;53.642;10.640;2022-09-01T10:37:47;27.00;55.30
44461;DHT22;30162;53.642;10.640;2022-09-01T10:42:49;26.00;56.10
44461;DHT22;30162;53.642;10.640;2022-09-01T10:45:28;25.70;56.50
44461;DHT22;30162;53.642;10.640;2022-09-01T10:47:56;25.40;56.80
44461;DHT22;30162;53.642;10.640;2022-09-01T10:50:29;25.30;57.50
44461;DHT22;30162;53.642;10.640;2022-09-01T10:53:05;25.50;57.30
44461;DHT22;30162;53.642;10.640;2022-09-01T10:55:38;25.50;57.90
44461;DHT22;30162;53.642;10.640;2022-09-01T11:01:15;26.20;56.40
44461;DHT22;30162;53.642;10.640;2022-09-01T11:03:59;26.20;56.40
44461;DHT22;30162;53.642;10.640;2022-09-01T11:06:50;26.20;55.80
44461;DHT22;30162;53.642;10.640;2022-09-01T11:09:28;26.10;55.80
44461;DHT22;30162;53.642;10.640;2022-09-01T11:14:27;25.70;56.10
44461;DHT22;30162;53.642;10.640;2022-09-01T11:17:20;25.70;56.70
44461;DHT22;30162;53.642;10.640;2022-09-01T11:20:02;25.80;56.60
44461;DHT22;30162;53.642;10.640;2022-09-01T11:22:39;25.70;56.50
44461;DHT22;30162;53.642;10.640;2022-09-01T11:33:48;25.70;56.50
44461;DHT22;30162;53.642;10.640;2022-09-01T11:38:55;26.40;54.70
44461;DHT22;30162;53.642;10.640;2022-09-01T11:41:24;26.90;54.40
44461;DHT22;30162;53.642;10.640;2022-09-01T11:43:55;27.50;53.10
44461;DHT22;30162;53.642;10.640;2022-09-01T11:46:31;28.00;53.40
44461;DHT22;30162;53.642;10.640;2022-09-01T11:49:04;28.40;52.10
44461;DHT22;30162;53.642;10.640;2022-09-01T11:51:44;28.60;52.50
44461;DHT22;30162;53.642;10.640;2022-09-01T11:54:10;28.10;52.20
44461;DHT22;30162;53.642;10.640;2022-09-01T11:56:37;27.70;52.70
44461;DHT22;30162;53.642;10.640;2022-09-01T11:59:02;27.50;52.80
44461;DHT22;30162;53.642;10.640;2022-09-01T12:01:36;27.50;53.40
44461;DHT22;30162;53.642;10.640;2022-09-01T12:04:22;27.80;52.80
44461;DHT22;30162;53.642;10.640;2022-09-01T12:06:54;27.40;52.50
44461;DHT22;30162;53.642;10.640;2022-09-01T12:09:20;27.50;53.30
44461;DHT22;30162;53.642;10.640;2022-09-01T12:11:46;27.60;53.30
44461;DHT22;30162;53.642;10.640;2022-09-01T12:14:19;27.90;52.00
44461;DHT22;30162;53.642;10.640;2022-09-01T12:16:56;28.20;51.00
44461;DHT22;30162;53.642;10.640;2022-09-01T12:19:25;27.90;50.20
44461;DHT22;30162;53.642;10.640;2022-09-01T12:22:03;27.90;50.80
44461;DHT22;30162;53.642;10.640;2022-09-01T12:24:33;27.80;50.90
44461;DHT22;30162;53.642;10.640;2022-09-01T12:27:00;27.50;51.80
44461;DHT22;30162;53.642;10.640;2022-09-01T12:29:26;27.40;52.10
44461;DHT22;30162;53.642;10.640;2022-09-01T12:31:53;27.60;50.90
44461;DHT22;30162;53.642;10.640;2022-09-01T12:34:25;27.70;50.70
44461;DHT22;30162;53.642;10.640;2022-09-01T12:39:46;27.20;51.30
44461;DHT22;30162;53.642;10.640;2022-09-01T12:44:49;26.90;52.50
44461;DHT22;30162;53.642;10.640;2022-09-01T12:47:48;26.90;53.10
44461;DHT22;30162;53.642;10.640;2022-09-01T12:53:00;26.40;53.30
44461;DHT22;30162;53.642;10.640;2022-09-01T12:55:35;26.20;52.80
44461;DHT22;30162;53.642;10.640;2022-09-01T12:58:03;26.40;52.70
44461;DHT22;30162;53.642;10.640;2022-09-01T13:00:34;26.30;53.10
44461;DHT22;30162;53.642;10.640;2022-09-01T13:05:38;27.10;52.20
44461;DHT22;30162;53.642;10.640;2022-09-01T13:10:48;27.30;52.40
44461;DHT22;30162;53.642;10.640;2022-09-01T13:13:15;27.10;53.00
44461;DHT22;30162;53.642;10.640;2022-09-01T13:15:46;27.50;53.60
44461;DHT22;30162;53.642;10.640;2022-09-01T13:18:15;27.90;53.00
44461;DHT22;30162;53.642;10.640;2022-09-01T13:20:41;28.10;51.90
44461;DHT22;30162;53.642;10.640;2022-09-01T13:23:07;27.90;51.10
44461;DHT22;30162;53.642;10.640;2022-09-01T13:25:33;27.90;52.60
44461;DHT22;30162;53.642;10.640;2022-09-01T13:28:00;27.50;51.70
44461;DHT22;30162;53.642;10.640;2022-09-01T13:30:28;27.30;52.50
44461;DHT22;30162;53.642;10.640;2022-09-01T13:32:55;26.80;53.20
44461;DHT22;30162;53.642;10.640;2022-09-01T13:35:21;26.80;53.00
44461;DHT22;30162;53.642;10.640;2022-09-01T13:37:47;26.50;53.00
44461;DHT22;30162;53.642;10.640;2022-09-01T13:40:15;26.00;54.00
44461;DHT22;30162;53.642;10.640;2022-09-01T13:42:51;26.00;54.70
44461;DHT22;30162;53.642;10.640;2022-09-01T13:45:18;25.90;55.10
44461;DHT22;30162;53.642;10.640;2022-09-01T13:47:47;25.70;55.20
44461;DHT22;30162;53.642;10.640;2022-09-01T13:50:16;25.30;55.70
44461;DHT22;30162;53.642;10.640;2022-09-01T13:52:53;25.50;56.40
44461;DHT22;30162;53.642;10.640;2022-09-01T13:55:23;25.40;56.50
44461;DHT22;30162;53.642;10.640;2022-09-01T13:57:49;25.50;56.10
44461;DHT22;30162;53.642;10.640;2022-09-01T14:00:18;25.70;55.20
44461;DHT22;30162;53.642;10.640;2022-09-01T14:02:47;25.80;55.30
44461;DHT22;30162;53.642;10.640;2022-09-01T14:05:23;26.20;55.50
44461;DHT22;30162;53.642;10.640;2022-09-01T14:07:49;26.60;55.20
44461;DHT22;30162;53.642;10.640;2022-09-01T14:10:16;26.70;54.60
44461;DHT22;30162;53.642;10.640;2022-09-01T14:12:42;26.50;54.10
44461;DHT22;30162;53.642;10.640;2022-09-01T14:15:09;26.30;54.90
44461;DHT22;30162;53.642;10.640;2022-09-01T14:17:36;26.30;53.50
44461;DHT22;30162;53.642;10.640;2022-09-01T14:20:04;26.40;54.40
44461;DHT22;30162;53.642;10.640;2022-09-01T14:22:32;26.40;54.80
44461;DHT22;30162;53.642;10.640;2022-09-01T14:24:58;25.90;53.90
44461;DHT22;30162;53.642;10.640;2022-09-01T14:27:23;26.10;54.40
44461;DHT22;30162;53.642;10.640;2022-09-01T14:29:50;26.00;54.70
44461;DHT22;30162;53.642;10.640;2022-09-01T14:32:20;26.00;54.80
44461;DHT22;30162;53.642;10.640;2022-09-01T14:34:51;26.10;53.90
44461;DHT22;30162;53.642;10.640;2022-09-01T14:37:17;26.20;54.30
44461;DHT22;30162;53.642;10.640;2022-09-01T14:39:51;26.30;54.20
44461;DHT22;30162;53.642;10.640;2022-09-01T14:42:17;26.10;53.40
44461;DHT22;30162;53.642;10.640;2022-09-01T14:44:45;26.20;53.50
44461;DHT22;30162;53.642;10.640;2022-09-01T14:47:11;26.20;53.70
44461;DHT22;30162;53.642;10.640;2022-09-01T14:49:37;26.10;54.50
44461;DHT22;30162;53.642;10.640;2022-09-01T14:52:04;26.00;53.90
44461;DHT22;30162;53.642;10.640;2022-09-01T14:54:32;26.10;54.10
44461;DHT22;30162;53.642;10.640;2022-09-01T14:56:58;26.10;53.30
44461;DHT22;30162;53.642;10.640;2022-09-01T14:59:24;26.10;53.10
44461;DHT22;30162;53.642;10.640;2022-09-01T15:01:49;26.20;53.40
44461;DHT22;30162;53.642;10.640;2022-09-01T15:04:15;26.40;52.70
44461;DHT22;30162;53.642;10.640;2022-09-01T15:06:41;26.50;52.50
44461;DHT22;30162;53.642;10.640;2022-09-01T15:09:06;26.40;52.30
44461;DHT22;30162;53.642;10.640;2022-09-01T15:11:32;26.40;52.80
44461;DHT22;30162;53.642;10.640;2022-09-01T15:13:57;26.50;53.70
44461;DHT22;30162;53.642;10.640;2022-09-01T15:16:24;26.30;52.70
44461;DHT22;30162;53.642;10.640;2022-09-01T15:18:51;26.20;52.20
44461;DHT22;30162;53.642;10.640;2022-09-01T15:21:25;26.20;52.80
44461;DHT22;30162;53.642;10.640;2022-09-01T15:23:51;26.20;52.10
44461;DHT22;30162;53.642;10.640;2022-09-01T15:26:18;26.20;52.20
44461;DHT22;30162;53.642;10.640;2022-09-01T15:28:45;26.30;52.60
44461;DHT22;30162;53.642;10.640;2022-09-01T15:31:11;25.90;51.30
44461;DHT22;30162;53.642;10.640;2022-09-01T15:33:37;26.00;52.30
44461;DHT22;30162;53.642;10.640;2022-09-01T15:36:03;26.10;52.40
44461;DHT22;30162;53.642;10.640;2022-09-01T15:38:29;25.80;52.50
44461;DHT22;30162;53.642;10.640;2022-09-01T15:40:55;25.60;52.00
44461;DHT22;30162;53.642;10.640;2022-09-01T15:43:20;25.60;52.60
44461;DHT22;30162;53.642;10.640;2022-09-01T15:45:46;25.60;52.90
44461;DHT22;30162;53.642;10.640;2022-09-01T15:48:12;25.50;52.80
44461;DHT22;30162;53.642;10.640;2022-09-01T15:50:37;25.50;53.00
44461;DHT22;30162;53.642;10.640;2022-09-01T15:53:04;25.30;51.80
44461;DHT22;30162;53.642;10.640;2022-09-01T15:55:44;25.30;52.60
44461;DHT22;30162;53.642;10.640;2022-09-01T15:58:12;25.30;53.00
44461;DHT22;30162;53.642;10.640;2022-09-01T16:00:39;25.30;52.30
44461;DHT22;30162;53.642;10.640;2022-09-01T16:03:05;25.30;52.40
44461;DHT22;30162;53.642;10.640;2022-09-01T16:05:33;24.90;52.50
44461;DHT22;30162;53.642;10.640;2022-09-01T16:08:00;25.00;53.00
44461;DHT22;30162;53.642;10.640;2022-09-01T16:10:28;25.10;53.30
44461;DHT22;30162;53.642;10.640;2022-09-01T16:12:54;25.20;52.10
44461;DHT22;30162;53.642;10.640;2022-09-01T16:15:22;25.00;52.10
44461;DHT22;30162;53.642;10.640;2022-09-01T16:21:00;24.90;52.70
44461;DHT22;30162;53.642;10.640;2022-09-01T16:23:42;24.80;52.90
44461;DHT22;30162;53.642;10.640;2022-09-01T16:26:08;24.70;52.70
44461;DHT22;30162;53.642;10.640;2022-09-01T16:28:37;24.80;52.60
44461;DHT22;30162;53.642;10.640;2022-09-01T16:31:11;24.50;53.00
44461;DHT22;30162;53.642;10.640;2022-09-01T16:33:38;24.50;53.60